Decoded Metar for LEVC (VALENCIA in SPAIN) (IATA:VLC) | Meteo·Mobile Aviation Weather
aviador You're here:

LEVC Decoded Metar

VALENCIA in SPAIN
Report Time2019-07-19 18:00:00
UTC Time2019-07-19 18:34:01
Flight Rules vfr VFR
Wind110° at 08 kt
W.Decomp.*RWY 12: 7.9 kt HW 1.3 kt LCW
Visibility9999 m
Phenomena:N/A
Clouds:N/A
Expected CloudBase > 3,600 ft AGL from Temp-Dew spread
CeilingNone
Temp28°C (ISA +13)
Dew Point19°C (58% RH)
Heat Index29.2°C
QNH1014 hPa
Density Alt2,001 ft
Elevation203 ft
Report Wrong Elevation
Raw Report
LEVC 191800Z 11008KT 070V160 CAVOK 28/19 Q1014 NOSIG=

Extra information for LEVC:More info

Metar Taf Metar & Taf Last 4 Metars F.Rules Stats Wind Profile Meteogram Temp Stats Airport Information Weather charts Add Link Nearby VenuesMetar ALERT Operation Metar Decoded Social comments

Webcam Valencia